Terminal Aerodrome Forecast
Issued by NWS

Current Version | Previous Version | Text Only | Print | Product List | Glossary On
Versions: 1 2 3 4 5 6 7 8 9 10 11 12 13 14
000
FTUS44 KEPZ 041100
TAFTCS
TAF
KTCS 041140Z 0412/0512 30006KT P6SM SCT110
     FM042000 20018G28KT P6SM VCTS SCT080CB
     FM050400 29010KT P6SM FEW120 BKN250=

USA.gov is the U.S. government's official web portal to all federal, state and local government web resources and services.